Time;durP1;ratioP1;P1;durP2;ratioP2;P2;SDS_P1;SDS_P2;PMS_P1;PMS_P2;Temp;Humidity;BMP_temperature;BMP_pressure;BME280_temperature;BME280_humidity;BME280_pressure;Samples;Min_cycle;Max_cycle;Signal;HPM_P1;HPM_P2
2024/04/13 00:02:14;;;;;;;3.90;3.50;;;15.10;99.90;;;;;;5443468;26;20744;-72
2024/04/13 00:04:40;;;;;;;3.57;3.27;;;15.10;99.90;;;;;;5443683;26;20232;-72
2024/04/13 00:07:09;;;;;;;4.53;3.27;;;15.10;99.90;;;;;;5443527;26;20220;-72
2024/04/13 00:09:35;;;;;;;3.57;3.07;;;15.10;99.90;;;;;;5443574;26;20228;-73
2024/04/13 00:12:07;;;;;;;4.23;3.03;;;15.10;99.90;;;;;;5443589;26;20272;-72
2024/04/13 00:14:33;;;;;;;3.70;3.40;;;15.10;99.90;;;;;;5443907;26;20220;-72
2024/04/13 00:17:02;;;;;;;4.70;3.63;;;15.10;99.90;;;;;;5443968;26;20229;-72
2024/04/13 00:19:28;;;;;;;3.20;3.00;;;15.00;99.90;;;;;;5443735;26;20229;-72
2024/04/13 00:22:00;;;;;;;3.53;3.27;;;15.00;99.90;;;;;;5443578;26;20271;-72
2024/04/13 00:24:26;;;;;;;3.70;3.50;;;15.00;99.90;;;;;;5447465;26;20236;-72
2024/04/13 00:26:55;;;;;;;4.07;3.77;;;15.00;99.90;;;;;;5447738;26;20240;-73
2024/04/13 00:29:23;;;;;;;3.80;3.60;;;15.00;99.90;;;;;;5446960;26;20220;-72
2024/04/13 00:31:52;;;;;;;4.13;3.67;;;15.00;99.90;;;;;;5447326;26;20625;-72
2024/04/13 00:34:18;;;;;;;6.63;3.83;;;15.00;99.90;;;;;;5447470;26;20229;-72
2024/04/13 00:36:46;;;;;;;4.90;3.57;;;15.00;99.90;;;;;;5447109;26;20760;-72
2024/04/13 00:39:12;;;;;;;4.27;3.97;;;15.00;99.90;;;;;;5447256;26;20229;-72
2024/04/13 00:41:42;;;;;;;3.97;3.67;;;14.90;99.90;;;;;;5447256;26;20236;-72
2024/04/13 00:44:07;;;;;;;3.83;3.53;;;14.90;99.90;;;;;;5447122;26;20351;-72
2024/04/13 00:46:42;;;;;;;4.10;3.70;;;15.00;99.90;;;;;;5447217;26;20240;-73
2024/04/13 00:49:13;;;;;;;4.33;4.00;;;15.00;99.90;;;;;;5447132;26;20227;-72
2024/04/13 00:51:44;;;;;;;4.87;3.90;;;15.00;99.90;;;;;;5446739;26;20250;-73
2024/04/13 00:54:14;;;;;;;3.67;3.37;;;14.90;99.90;;;;;;5447119;26;20267;-72
2024/04/13 00:56:43;;;;;;;3.90;3.60;;;15.00;99.90;;;;;;5447163;26;20322;-72
2024/04/13 00:59:10;;;;;;;5.30;3.87;;;14.90;99.90;;;;;;5447052;26;20311;-72
2024/04/13 01:01:41;;;;;;;4.03;3.60;;;14.90;99.90;;;;;;5446505;26;20232;-72
2024/04/13 01:04:13;;;;;;;5.07;3.80;;;14.90;99.90;;;;;;5446598;26;20297;-72
2024/04/13 01:06:40;;;;;;;3.93;3.63;;;15.00;99.90;;;;;;5446441;26;20272;-72
2024/04/13 01:09:10;;;;;;;4.40;3.60;;;14.90;99.90;;;;;;5446555;26;20313;-72
2024/04/13 01:11:36;;;;;;;4.00;3.37;;;14.90;99.90;;;;;;5446581;26;20358;-72
2024/04/13 01:14:05;;;;;;;4.23;3.83;;;15.00;99.90;;;;;;5446515;26;20707;-71
2024/04/13 01:16:31;;;;;;;3.93;3.63;;;15.00;99.90;;;;;;5446397;26;20267;-71
2024/04/13 01:19:02;;;;;;;4.03;3.70;;;15.00;99.90;;;;;;5446333;26;20288;-71
2024/04/13 01:21:28;;;;;;;4.20;3.80;;;14.90;99.90;;;;;;5445842;26;20237;-71
2024/04/13 01:24:04;;;;;;;5.50;3.87;;;15.00;99.90;;;;;;5446107;26;20266;-71
2024/04/13 01:26:37;;;;;;;4.40;4.00;;;14.90;99.90;;;;;;5446155;26;20260;-70
2024/04/13 01:29:06;;;;;;;4.90;4.40;;;14.90;99.90;;;;;;5445792;26;20286;-71
2024/04/13 01:31:33;;;;;;;4.13;3.70;;;14.90;99.90;;;;;;5445979;26;20228;-71
2024/04/13 01:34:02;;;;;;;4.87;4.00;;;14.90;99.90;;;;;;5445930;26;20228;-71
2024/04/13 01:36:35;;;;;;;4.43;4.10;;;14.80;99.90;;;;;;5445794;26;20274;-71
2024/04/13 01:39:07;;;;;;;4.47;4.17;;;14.80;99.90;;;;;;5409753;26;20870;-71
2024/04/13 01:41:36;;;;;;;8.17;4.30;;;14.80;99.90;;;;;;5412312;26;20712;-71
2024/04/13 01:44:06;;;;;;;5.83;4.43;;;14.70;99.90;;;;;;5445862;26;20232;-72
2024/04/13 01:46:32;;;;;;;5.53;4.37;;;14.70;99.90;;;;;;5445832;26;20365;-71
2024/04/13 01:49:01;;;;;;;4.83;4.03;;;14.70;99.90;;;;;;5446070;26;20236;-71
2024/04/13 01:51:28;;;;;;;4.43;4.03;;;14.70;99.90;;;;;;5445273;26;20228;-71
2024/04/13 01:53:56;;;;;;;4.20;3.90;;;14.60;99.90;;;;;;5445763;26;20299;-71
2024/04/13 01:56:25;;;;;;;4.30;4.00;;;14.60;99.90;;;;;;5445571;26;20224;-71
2024/04/13 01:58:53;;;;;;;7.80;4.27;;;14.60;99.90;;;;;;5445663;26;20244;-72
2024/04/13 02:01:20;;;;;;;4.93;4.33;;;14.60;99.90;;;;;;5445101;26;20723;-71
2024/04/13 02:03:48;;;;;;;5.17;4.63;;;14.50;99.90;;;;;;5445362;26;20232;-71
2024/04/13 02:06:14;;;;;;;5.53;4.10;;;14.50;99.90;;;;;;5445007;26;20263;-71
2024/04/13 02:08:43;;;;;;;4.40;4.00;;;14.50;99.90;;;;;;5445238;26;20814;-71
2024/04/13 02:11:10;;;;;;;6.17;4.00;;;14.50;99.90;;;;;;5445440;26;20224;-71
2024/04/13 02:13:41;;;;;;;4.90;4.60;;;14.40;99.90;;;;;;5445349;26;20726;-71
2024/04/13 02:16:08;;;;;;;5.27;4.70;;;14.40;99.90;;;;;;5445224;26;20240;-71
2024/04/13 02:18:37;;;;;;;7.43;4.40;;;14.30;99.90;;;;;;5445354;26;20228;-71
2024/04/13 02:21:03;;;;;;;5.47;4.90;;;14.30;99.90;;;;;;5444792;26;20224;-71
2024/04/13 02:23:32;;;;;;;5.03;4.60;;;14.30;99.90;;;;;;5444978;26;20248;-71
2024/04/13 02:25:59;;;;;;;4.90;4.50;;;14.20;99.90;;;;;;5445111;26;20228;-71
2024/04/13 02:28:28;;;;;;;5.77;4.73;;;14.20;99.90;;;;;;5445301;26;20228;-70
2024/04/13 02:30:57;;;;;;;6.40;4.47;;;14.20;99.90;;;;;;5445183;26;20715;-71
2024/04/13 02:33:25;;;;;;;5.17;4.67;;;14.20;99.90;;;;;;5444685;26;20236;-71
2024/04/13 02:35:58;;;;;;;5.20;4.77;;;14.20;99.90;;;;;;5445067;26;20232;-71
2024/04/13 02:38:27;;;;;;;5.27;4.87;;;14.20;99.90;;;;;;5445073;26;20725;-71
2024/04/13 02:40:56;;;;;;;4.70;4.27;;;14.20;99.90;;;;;;5445178;26;20224;-71
2024/04/13 02:43:25;;;;;;;5.10;4.60;;;14.20;99.90;;;;;;5444781;26;20236;-71
2024/04/13 02:45:51;;;;;;;7.37;5.27;;;14.20;99.90;;;;;;5443998;26;20232;-71
2024/04/13 02:48:23;;;;;;;5.20;4.70;;;14.10;99.90;;;;;;5444827;26;20279;-71
2024/04/13 02:50:49;;;;;;;5.50;4.73;;;14.10;99.90;;;;;;5444705;26;20267;-71
2024/04/13 02:53:17;;;;;;;5.10;4.60;;;14.10;99.90;;;;;;5444277;26;20676;-71
2024/04/13 02:55:44;;;;;;;5.37;4.93;;;14.00;99.90;;;;;;5444301;26;20290;-71
2024/04/13 02:58:13;;;;;;;5.13;4.83;;;14.00;99.90;;;;;;5444065;26;20348;-71
2024/04/13 03:00:39;;;;;;;6.90;4.80;;;14.00;99.90;;;;;;5444417;26;20703;-71
2024/04/13 03:03:07;;;;;;;5.57;4.77;;;14.00;99.90;;;;;;5444379;26;20223;-71
2024/04/13 03:05:37;;;;;;;5.10;4.67;;;14.00;99.90;;;;;;5444313;26;20687;-71
2024/04/13 03:08:06;;;;;;;6.10;5.60;;;13.90;99.90;;;;;;5443952;26;20220;-72
2024/04/13 03:10:32;;;;;;;7.13;5.23;;;13.90;99.90;;;;;;5444515;26;20228;-71
2024/04/13 03:13:01;;;;;;;5.17;4.67;;;14.00;99.90;;;;;;5421073;26;20790;-71
2024/04/13 03:15:27;;;;;;;5.50;5.00;;;13.90;99.90;;;;;;5408369;26;20324;-71
2024/04/13 03:17:56;;;;;;;5.47;5.07;;;13.90;99.90;;;;;;5408513;26;20296;-71
2024/04/13 03:20:22;;;;;;;7.60;5.53;;;13.90;99.90;;;;;;5408038;26;20229;-72
2024/04/13 03:22:53;;;;;;;6.43;5.53;;;13.90;99.90;;;;;;5408019;26;20230;-71
2024/04/13 03:25:22;;;;;;;7.13;5.37;;;13.90;99.90;;;;;;5408255;26;20229;-72
2024/04/13 03:27:48;;;;;;;6.40;5.13;;;13.90;99.90;;;;;;5408215;26;20778;-71
2024/04/13 03:30:16;;;;;;;7.27;5.20;;;13.90;99.90;;;;;;5426423;26;20221;-71
2024/04/13 03:32:42;;;;;;;5.80;5.30;;;13.80;99.90;;;;;;5444170;26;20228;-71
2024/04/13 03:35:11;;;;;;;5.83;5.33;;;13.80;99.90;;;;;;5444099;26;20274;-71
2024/04/13 03:37:37;;;;;;;5.83;5.23;;;13.80;99.90;;;;;;5443579;26;20284;-71
2024/04/13 03:40:13;;;;;;;5.87;5.27;;;13.80;99.90;;;;;;5443857;26;20287;-71
2024/04/13 03:42:45;;;;;;;6.03;5.53;;;13.80;99.90;;;;;;5443813;26;20227;-71
2024/04/13 03:45:11;;;;;;;7.50;5.20;;;13.80;99.90;;;;;;5443752;26;20279;-71
2024/04/13 03:47:39;;;;;;;6.80;5.17;;;13.80;99.90;;;;;;5443525;26;20232;-71
2024/04/13 03:50:06;;;;;;;6.97;5.23;;;13.80;99.90;;;;;;5443161;26;20228;-71
2024/04/13 03:52:35;;;;;;;5.90;5.40;;;13.70;99.90;;;;;;5443208;26;20332;-71
2024/04/13 03:55:01;;;;;;;6.13;5.47;;;13.90;99.90;;;;;;5443197;26;20754;-71
2024/04/13 03:57:33;;;;;;;5.73;5.20;;;13.80;99.90;;;;;;5444212;26;20240;-71
2024/04/13 03:59:59;;;;;;;5.80;5.40;;;13.80;99.90;;;;;;5447118;26;20300;-71
2024/04/13 04:02:27;;;;;;;6.33;5.70;;;13.80;99.90;;;;;;5446704;26;20333;-71
2024/04/13 04:04:54;;;;;;;5.80;5.30;;;13.80;99.90;;;;;;5446806;26;20232;-71
2024/04/13 04:07:22;;;;;;;5.83;5.33;;;13.80;99.90;;;;;;5446204;26;20282;-71
2024/04/13 04:09:48;;;;;;;8.67;5.77;;;13.80;99.90;;;;;;5472952;26;20280;-71
2024/04/13 04:12:16;;;;;;;6.10;5.50;;;13.80;99.90;;;;;;5470662;26;20228;-72
2024/04/13 04:14:45;;;;;;;7.03;5.90;;;13.70;99.90;;;;;;5446738;26;20244;-71
2024/04/13 04:17:13;;;;;;;5.80;5.27;;;13.70;99.90;;;;;;5446726;26;20791;-71
2024/04/13 04:19:39;;;;;;;6.20;5.63;;;13.80;99.90;;;;;;5446848;26;20262;-71
2024/04/13 04:22:09;;;;;;;6.37;5.83;;;13.80;99.90;;;;;;5446390;26;20224;-71
2024/04/13 04:24:37;;;;;;;6.40;5.80;;;13.70;99.90;;;;;;5446758;26;20279;-71
2024/04/13 04:27:06;;;;;;;6.73;5.50;;;13.70;99.90;;;;;;5446217;26;20317;-71
2024/04/13 04:29:32;;;;;;;6.60;6.00;;;13.80;99.90;;;;;;5446908;26;20236;-71
2024/04/13 04:32:04;;;;;;;6.57;5.97;;;13.70;99.90;;;;;;5446952;26;20336;-71
2024/04/13 04:34:30;;;;;;;7.83;6.30;;;13.70;99.90;;;;;;5446729;26;20725;-71
2024/04/13 04:36:59;;;;;;;6.63;6.03;;;13.70;99.90;;;;;;5446459;26;20283;-71
2024/04/13 04:39:25;;;;;;;6.77;6.00;;;13.70;99.90;;;;;;5446372;26;20221;-71
2024/04/13 04:41:53;;;;;;;7.03;6.33;;;13.70;99.90;;;;;;5446596;26;20316;-72
2024/04/13 04:44:19;;;;;;;6.90;6.23;;;13.70;99.90;;;;;;5446523;26;20274;-71
2024/04/13 04:46:48;;;;;;;6.10;5.50;;;13.70;99.90;;;;;;5446474;26;20225;-71
2024/04/13 04:49:16;;;;;;;6.17;5.57;;;13.70;99.90;;;;;;5446506;26;20750;-71
2024/04/13 04:51:45;;;;;;;10.67;6.13;;;13.80;99.90;;;;;;5446338;26;20503;-71
2024/04/13 04:54:11;;;;;;;7.10;5.87;;;13.80;99.90;;;;;;5446243;26;20240;-71
2024/04/13 04:56:39;;;;;;;9.03;5.47;;;13.80;99.90;;;;;;5446514;26;20266;-71
2024/04/13 04:59:05;;;;;;;6.47;5.70;;;13.80;99.90;;;;;;5446366;26;20283;-71
2024/04/13 05:01:34;;;;;;;6.03;5.53;;;13.70;99.90;;;;;;5446255;26;20232;-71
2024/04/13 05:04:00;;;;;;;6.60;6.00;;;13.80;99.90;;;;;;5446192;26;20224;-71
2024/04/13 05:06:31;;;;;;;6.37;5.77;;;13.70;99.90;;;;;;5477761;26;20261;-71
2024/04/13 05:08:57;;;;;;;10.13;6.43;;;13.80;99.90;;;;;;5481863;26;20261;-71
2024/04/13 05:11:25;;;;;;;7.07;6.20;;;13.80;99.90;;;;;;5468284;26;20798;-71
2024/04/13 05:13:51;;;;;;;5.93;5.53;;;13.80;99.90;;;;;;5410260;26;20291;-71
2024/04/13 05:16:20;;;;;;;8.00;5.80;;;13.80;99.90;;;;;;5409928;26;20233;-71
2024/04/13 05:18:46;;;;;;;6.13;5.60;;;13.80;99.90;;;;;;5410511;26;20362;-72
2024/04/13 05:21:17;;;;;;;6.03;5.37;;;13.80;99.90;;;;;;5409853;26;20233;-71
2024/04/13 05:23:46;;;;;;;6.53;5.90;;;13.80;99.90;;;;;;5443270;26;20228;-71
2024/04/13 05:26:15;;;;;;;6.77;6.17;;;13.90;99.90;;;;;;5445709;26;20224;-71
2024/04/13 05:28:41;;;;;;;6.27;5.67;;;13.80;99.90;;;;;;5446050;26;20225;-72
2024/04/13 05:31:09;;;;;;;6.13;5.73;;;13.90;99.90;;;;;;5445783;26;20275;-72
2024/04/13 05:33:35;;;;;;;6.23;5.63;;;13.90;99.90;;;;;;5446082;26;20575;-72
2024/04/13 05:36:04;;;;;;;6.13;5.67;;;14.00;99.90;;;;;;5445802;26;20719;-72
2024/04/13 05:38:30;;;;;;;6.77;6.17;;;14.00;99.90;;;;;;5445756;26;20292;-71
2024/04/13 05:41:01;;;;;;;7.63;6.23;;;14.10;99.90;;;;;;5446191;26;20332;-72
2024/04/13 05:43:28;;;;;;;6.63;6.07;;;14.10;99.90;;;;;;5445998;26;20228;-73
2024/04/13 05:45:56;;;;;;;7.17;6.57;;;14.10;99.90;;;;;;5446259;26;20329;-71
2024/04/13 05:48:22;;;;;;;6.97;6.37;;;14.20;99.90;;;;;;5445659;26;20695;-72
2024/04/13 05:50:55;;;;;;;6.10;5.60;;;14.20;99.90;;;;;;5445909;26;20305;-72
2024/04/13 05:53:21;;;;;;;8.23;6.27;;;14.30;99.90;;;;;;5445603;26;20228;-71
2024/04/13 05:55:50;;;;;;;6.70;6.10;;;14.40;99.90;;;;;;5445806;26;20240;-72
2024/04/13 05:58:19;;;;;;;7.00;6.30;;;14.50;99.90;;;;;;5442425;26;20296;-72
2024/04/13 06:00:49;;;;;;;8.40;6.33;;;14.50;99.90;;;;;;5444127;26;20236;-71
2024/04/13 06:03:15;;;;;;;7.83;6.10;;;14.60;99.90;;;;;;5445445;26;20274;-71
2024/04/13 06:05:44;;;;;;;6.60;6.00;;;14.70;99.90;;;;;;5445912;26;20695;-72
2024/04/13 06:08:10;;;;;;;7.07;6.37;;;14.70;99.90;;;;;;5445284;26;20287;-72
2024/04/13 06:10:38;;;;;;;6.10;5.50;;;14.80;99.90;;;;;;5445727;26;20272;-72
2024/04/13 06:13:04;;;;;;;6.80;6.20;;;14.80;99.90;;;;;;5445388;26;20224;-71
2024/04/13 06:15:39;;;;;;;6.90;6.13;;;14.80;99.90;;;;;;5445657;26;20266;-71
2024/04/13 06:18:05;;;;;;;7.87;5.90;;;14.90;99.90;;;;;;5445528;26;20243;-72
2024/04/13 06:20:33;;;;;;;6.70;6.10;;;14.90;99.90;;;;;;5444305;26;20216;-72
2024/04/13 06:22:59;;;;;;;7.17;6.53;;;15.00;99.90;;;;;;5445197;26;20576;-71
2024/04/13 06:25:28;;;;;;;9.40;6.77;;;15.00;99.90;;;;;;5445503;26;20288;-72
2024/04/13 06:27:54;;;;;;;8.57;6.13;;;15.10;99.90;;;;;;5445217;26;20274;-71
2024/04/13 06:30:22;;;;;;;6.67;6.07;;;15.10;99.90;;;;;;5445230;26;20703;-71
2024/04/13 06:32:51;;;;;;;6.40;5.80;;;15.20;99.90;;;;;;5445144;26;20255;-71
2024/04/13 06:35:20;;;;;;;6.33;5.77;;;15.20;99.90;;;;;;5445070;26;20776;-72
2024/04/13 06:37:46;;;;;;;7.57;6.17;;;15.40;99.90;;;;;;5444961;26;20274;-72
2024/04/13 06:40:14;;;;;;;6.37;5.67;;;15.40;99.90;;;;;;5445202;26;20224;-72
2024/04/13 06:42:40;;;;;;;7.93;6.53;;;15.40;99.90;;;;;;5444705;26;20228;-71
2024/04/13 06:45:09;;;;;;;7.73;6.27;;;15.50;99.90;;;;;;5444766;26;20615;-72
2024/04/13 06:47:35;;;;;;;6.63;6.03;;;15.50;99.90;;;;;;5444916;26;20229;-71
2024/04/13 06:50:07;;;;;;;7.43;5.90;;;15.60;99.90;;;;;;5444686;26;20606;-71
2024/04/13 06:52:33;;;;;;;7.03;6.33;;;15.70;99.90;;;;;;5444413;26;20224;-72
2024/04/13 06:55:02;;;;;;;7.87;5.90;;;15.70;99.90;;;;;;5444737;26;20299;-71
2024/04/13 06:57:28;;;;;;;9.63;5.80;;;15.80;99.90;;;;;;5433684;26;20559;-71
2024/04/13 06:59:56;;;;;;;6.27;5.67;;;15.90;99.90;;;;;;5481195;26;20262;-72
2024/04/13 07:02:22;;;;;;;7.57;6.13;;;15.90;99.90;;;;;;5480479;26;20227;-72
2024/04/13 07:04:52;;;;;;;8.83;5.60;;;16.00;99.90;;;;;;5452511;26;20248;-71
2024/04/13 07:07:21;;;;;;;8.47;4.97;;;16.10;99.90;;;;;;5443951;26;21025;-72
2024/04/13 07:09:50;;;;;;;5.80;5.20;;;16.10;99.90;;;;;;5444291;26;20266;-71
2024/04/13 07:12:16;;;;;;;6.40;5.80;;;16.20;99.90;;;;;;5444061;26;20923;-71
2024/04/13 07:14:44;;;;;;;6.87;6.17;;;16.40;99.90;;;;;;5444087;26;20742;-71
2024/04/13 07:17:10;;;;;;;7.97;6.27;;;16.40;99.90;;;;;;5444246;26;20232;-71
2024/04/13 07:19:39;;;;;;;5.83;5.33;;;16.50;99.90;;;;;;5444177;26;20280;-71
2024/04/13 07:22:05;;;;;;;6.80;5.80;;;16.60;99.90;;;;;;5443842;26;20279;-72
2024/04/13 07:24:36;;;;;;;6.47;5.97;;;16.70;99.90;;;;;;5444009;26;20220;-72
2024/04/13 07:27:02;;;;;;;6.63;5.93;;;16.70;99.90;;;;;;5443808;26;20225;-72
2024/04/13 07:29:31;;;;;;;6.80;6.23;;;16.80;99.90;;;;;;5443941;26;20232;-71
2024/04/13 07:31:57;;;;;;;9.13;6.70;;;16.90;99.90;;;;;;5445708;26;20216;-71
2024/04/13 07:34:25;;;;;;;7.07;6.37;;;16.90;99.90;;;;;;5447677;26;20701;-71
2024/04/13 07:36:51;;;;;;;6.83;6.13;;;16.90;99.90;;;;;;5447431;26;20572;-72
2024/04/13 07:39:20;;;;;;;8.37;6.83;;;17.00;99.90;;;;;;5447034;26;20274;-71
2024/04/13 07:41:48;;;;;;;7.33;6.63;;;17.00;99.90;;;;;;5447111;26;20267;-71
2024/04/13 07:44:17;;;;;;;7.50;6.70;;;17.10;99.90;;;;;;5447104;26;20332;-71
2024/04/13 07:46:43;;;;;;;9.47;6.83;;;17.10;99.90;;;;;;5447433;26;20232;-71
2024/04/13 07:49:11;;;;;;;7.03;6.50;;;17.10;99.90;;;;;;5447201;26;20224;-72
2024/04/13 07:51:37;;;;;;;6.83;6.17;;;17.20;99.90;;;;;;5447116;26;20271;-71
2024/04/13 07:54:06;;;;;;;7.67;6.80;;;17.30;99.90;;;;;;5446382;26;20267;-71
2024/04/13 07:56:32;;;;;;;7.97;6.40;;;17.20;99.90;;;;;;5447440;26;20710;-72
2024/04/13 07:59:03;;;;;;;8.63;5.80;;;17.30;99.90;;;;;;5447113;26;20289;-72
2024/04/13 08:01:29;;;;;;;10.03;6.83;;;17.30;99.90;;;;;;5446628;26;20798;-72
2024/04/13 08:03:58;;;;;;;10.40;6.10;;;17.30;99.90;;;;;;5446852;26;20262;-72
2024/04/13 08:06:25;;;;;;;6.70;6.00;;;17.20;99.90;;;;;;5446708;26;20228;-72
2024/04/13 08:08:54;;;;;;;7.53;5.53;;;17.20;99.90;;;;;;5447013;26;20232;-72
2024/04/13 08:11:20;;;;;;;7.93;5.43;;;17.20;99.90;;;;;;5446793;26;20240;-72
2024/04/13 08:13:48;;;;;;;5.63;4.90;;;17.30;99.90;;;;;;5447032;26;20228;-72
2024/04/13 08:16:17;;;;;;;5.40;4.90;;;17.40;99.90;;;;;;5447141;26;20274;-72
2024/04/13 08:18:45;;;;;;;8.20;4.90;;;17.50;99.90;;;;;;5446814;26;20266;-72
2024/04/13 08:21:11;;;;;;;4.30;3.90;;;17.70;99.90;;;;;;5446592;26;20232;-72
2024/04/13 08:23:39;;;;;;;6.33;4.07;;;17.60;99.90;;;;;;5446543;26;20228;-72
2024/04/13 08:26:05;;;;;;;4.23;3.93;;;17.60;99.90;;;;;;5446661;26;20769;-72
2024/04/13 08:28:34;;;;;;;4.97;4.40;;;17.60;99.90;;;;;;5446679;26;20232;-72
2024/04/13 08:31:03;;;;;;;5.57;4.30;;;17.60;99.90;;;;;;5446867;26;20259;-72
2024/04/13 08:33:35;;;;;;;4.30;3.93;;;17.70;99.90;;;;;;5446795;26;20264;-72
2024/04/13 08:36:03;;;;;;;6.00;4.83;;;17.80;99.90;;;;;;5446381;26;20232;-72
2024/04/13 08:38:31;;;;;;;4.77;4.10;;;17.80;99.90;;;;;;5446813;26;20232;-72
2024/04/13 08:41:02;;;;;;;4.60;4.20;;;17.80;99.90;;;;;;5446891;26;20264;-71
2024/04/13 08:43:31;;;;;;;6.80;4.50;;;17.80;99.90;;;;;;5445716;26;20232;-72
2024/04/13 08:45:58;;;;;;;5.57;4.17;;;17.90;99.90;;;;;;5446806;26;20227;-72
2024/04/13 08:48:27;;;;;;;4.57;4.17;;;18.00;99.90;;;;;;5446377;26;20248;-72
2024/04/13 08:50:58;;;;;;;4.90;4.40;;;18.10;99.90;;;;;;5446483;26;20278;-72
2024/04/13 08:53:31;;;;;;;8.23;4.57;;;18.20;99.90;;;;;;5446221;26;20267;-72
2024/04/13 08:56:00;;;;;;;5.80;3.97;;;18.30;99.90;;;;;;5446045;26;20248;-72
2024/04/13 08:58:30;;;;;;;4.30;3.93;;;18.30;99.90;;;;;;5446718;26;20865;-71
2024/04/13 09:00:59;;;;;;;6.03;4.33;;;18.20;99.90;;;;;;5446767;26;20229;-71
2024/04/13 09:03:29;;;;;;;6.90;4.40;;;18.10;99.90;;;;;;5446621;26;20224;-72
2024/04/13 09:05:58;;;;;;;8.40;4.27;;;18.10;99.90;;;;;;5446794;26;20349;-72
2024/04/13 09:08:28;;;;;;;5.50;4.17;;;18.20;99.90;;;;;;5446165;26;20277;-73
2024/04/13 09:10:56;;;;;;;5.43;4.33;;;18.30;99.90;;;;;;5446379;26;20592;-72
2024/04/13 09:13:24;;;;;;;4.47;4.17;;;18.40;99.90;;;;;;5446163;26;20236;-72
2024/04/13 09:15:50;;;;;;;4.93;3.77;;;18.40;99.90;;;;;;5446601;26;20773;-71
2024/04/13 09:18:19;;;;;;;5.20;4.23;;;18.40;99.90;;;;;;5446079;26;20225;-72
2024/04/13 09:20:45;;;;;;;4.57;4.03;;;18.50;99.90;;;;;;5446532;26;20929;-72
2024/04/13 09:23:17;;;;;;;4.10;3.77;;;18.60;99.90;;;;;;5446268;26;20344;-72
2024/04/13 09:25:42;;;;;;;4.07;3.73;;;18.70;99.90;;;;;;5446015;26;20232;-72
2024/04/13 09:28:12;;;;;;;4.13;3.83;;;18.80;99.90;;;;;;5446129;26;21083;-72
2024/04/13 09:30:39;;;;;;;5.10;3.33;;;18.80;99.90;;;;;;5446101;26;21076;-72
2024/04/13 09:33:10;;;;;;;4.73;3.27;;;18.80;99.90;;;;;;5445402;26;20236;-73
2024/04/13 09:35:36;;;;;;;5.80;3.20;;;18.90;99.90;;;;;;5446227;26;20225;-72
2024/04/13 09:38:05;;;;;;;6.40;3.83;;;19.20;99.90;;;;;;5445326;26;20796;-72
2024/04/13 09:40:34;;;;;;;5.03;3.53;;;19.40;99.90;;;;;;5445845;26;20224;-72
2024/04/13 09:43:03;;;;;;;5.07;3.20;;;19.40;99.90;;;;;;5445398;26;20232;-72
2024/04/13 09:45:29;;;;;;;3.37;3.07;;;19.40;99.90;;;;;;5445359;26;20639;-72
2024/04/13 09:48:00;;;;;;;3.60;3.30;;;19.50;99.90;;;;;;5445621;26;20317;-72
2024/04/13 09:50:27;;;;;;;7.77;3.80;;;19.50;99.90;;;;;;5445946;26;20224;-72
2024/04/13 09:52:57;;;;;;;3.37;3.07;;;19.70;99.90;;;;;;5445080;26;20248;-72
2024/04/13 09:55:23;;;;;;;4.50;3.30;;;19.60;99.90;;;;;;5445916;26;20412;-72
2024/04/13 09:57:56;;;;;;;6.20;2.97;;;19.70;99.90;;;;;;5445458;26;20283;-72
2024/04/13 10:00:22;;;;;;;4.57;2.70;;;19.70;99.90;;;;;;5445968;26;20224;-72
2024/04/13 10:02:51;;;;;;;4.47;3.13;;;19.80;99.90;;;;;;5445292;26;20229;-72
2024/04/13 10:05:18;;;;;;;4.93;2.63;;;19.80;99.90;;;;;;5445261;26;20228;-72
2024/04/13 10:07:47;;;;;;;3.37;3.00;;;20.00;99.90;;;;;;5445432;26;20266;-72
2024/04/13 10:10:14;;;;;;;3.67;2.70;;;20.10;99.90;;;;;;5445430;26;20220;-72
2024/04/13 10:12:43;;;;;;;2.43;2.30;;;20.00;99.90;;;;;;5444997;26;20232;-72
2024/04/13 10:15:14;;;;;;;2.77;2.57;;;20.10;99.90;;;;;;5445172;26;20231;-72
2024/04/13 10:17:45;;;;;;;2.50;2.30;;;20.20;99.90;;;;;;5445578;26;20546;-71
2024/04/13 10:20:11;;;;;;;2.63;2.43;;;20.10;99.90;;;;;;5445384;26;20228;-72
2024/04/13 10:22:39;;;;;;;2.77;2.57;;;20.20;99.90;;;;;;5445026;26;20231;-72
2024/04/13 10:25:07;;;;;;;2.43;2.23;;;20.20;99.90;;;;;;5445033;26;20271;-72
2024/04/13 10:27:38;;;;;;;2.23;2.10;;;20.20;99.90;;;;;;5445155;26;20228;-72
2024/04/13 10:30:05;;;;;;;3.13;2.90;;;20.30;99.90;;;;;;5445280;26;20228;-72
2024/04/13 10:32:36;;;;;;;3.80;2.90;;;20.30;99.90;;;;;;5445075;26;20271;-72
2024/04/13 10:35:09;;;;;;;3.10;2.80;;;20.40;99.90;;;;;;5445130;26;21064;-72
2024/04/13 10:37:39;;;;;;;4.03;2.60;;;20.60;99.90;;;;;;5444612;26;20228;-72
2024/04/13 10:40:08;;;;;;;3.43;3.13;;;20.50;99.90;;;;;;5444777;26;20331;-72
2024/04/13 10:42:37;;;;;;;2.83;2.63;;;20.50;99.90;;;;;;5456163;26;20359;-72
2024/04/13 10:45:10;;;;;;;4.27;2.40;;;20.70;99.90;;;;;;5481227;26;20227;-72
2024/04/13 10:47:42;;;;;;;5.20;2.13;;;20.90;99.90;;;;;;5481563;26;20231;-72
2024/04/13 10:50:10;;;;;;;2.63;2.30;;;21.00;99.90;;;;;;5448564;26;20857;-72
2024/04/13 10:52:39;;;;;;;6.30;2.33;;;21.00;99.90;;;;;;5444774;26;20232;-72
2024/04/13 10:55:05;;;;;;;6.43;2.38;;;21.00;99.90;;;;;;5445234;26;20244;-72
2024/04/13 10:57:34;;;;;;;9.43;2.57;;;21.20;99.90;;;;;;5445217;26;20244;-72
2024/04/13 11:00:00;;;;;;;6.13;2.47;;;21.30;99.90;;;;;;5445061;26;20236;-72
2024/04/13 11:02:28;;;;;;;2.65;1.92;;;21.40;99.90;;;;;;5445246;26;20224;-72
2024/04/13 11:04:57;;;;;;;4.27;1.80;;;21.50;99.90;;;;;;5445154;26;20617;-72
2024/04/13 11:07:25;;;;;;;3.08;2.13;;;21.60;99.90;;;;;;5443686;26;20232;-71
2024/04/13 11:09:51;;;;;;;3.78;2.00;;;21.50;99.90;;;;;;5445098;26;20271;-72
2024/04/13 11:12:21;;;;;;;4.90;1.90;;;21.60;99.90;;;;;;5444650;26;20228;-72
2024/04/13 11:14:47;;;;;;;2.53;2.33;;;21.90;99.90;;;;;;5444536;26;20270;-72
2024/04/13 11:17:15;;;;;;;3.00;2.13;;;22.00;99.90;;;;;;5444937;26;20217;-72
2024/04/13 11:19:41;;;;;;;3.60;2.08;;;22.00;99.90;;;;;;5444401;26;20263;-73
2024/04/13 11:22:14;;;;;;;2.05;1.95;;;22.20;99.90;;;;;;5444133;26;20232;-72
2024/04/13 11:24:40;;;;;;;2.13;1.98;;;22.30;99.90;;;;;;5444739;26;20274;-72
2024/04/13 11:27:09;;;;;;;7.07;1.90;;;22.10;99.90;;;;;;5444048;26;20278;-72
2024/04/13 11:29:35;;;;;;;2.25;2.03;;;22.10;99.90;;;;;;5444648;26;20275;-72
2024/04/13 11:32:04;;;;;;;2.40;1.90;;;22.20;99.90;;;;;;5444386;26;20232;-72
2024/04/13 11:34:30;;;;;;;2.97;1.77;;;21.90;99.90;;;;;;5444078;26;20236;-72
2024/04/13 11:37:06;;;;;;;3.42;1.70;;;22.00;99.90;;;;;;5443931;26;20236;-72
2024/04/13 11:39:37;;;;;;;2.10;1.73;;;22.10;99.90;;;;;;5465675;26;20235;-72
2024/04/13 11:42:06;;;;;;;1.85;1.35;;;22.20;99.90;;;;;;5470679;26;20280;-72
2024/04/13 11:44:32;;;;;;;1.88;1.58;;;22.30;99.90;;;;;;5444141;26;20755;-72
2024/04/13 11:47:02;;;;;;;1.67;1.50;;;22.50;99.90;;;;;;5444508;26;20288;-72
2024/04/13 11:49:28;;;;;;;2.72;1.85;;;22.40;99.90;;;;;;5444140;26;20279;-72
2024/04/13 11:51:57;;;;;;;1.95;1.50;;;22.50;99.90;;;;;;5444188;26;20284;-72
2024/04/13 11:54:24;;;;;;;1.90;1.50;;;22.70;99.90;;;;;;5444099;26;20240;-72
2024/04/13 11:56:56;;;;;;;5.00;1.60;;;22.80;99.90;;;;;;5444037;26;20344;-72
2024/04/13 11:59:23;;;;;;;1.67;1.58;;;22.70;99.90;;;;;;5444200;26;20791;-72
2024/04/13 12:01:52;;;;;;;1.50;1.40;;;22.80;99.90;;;;;;5444337;26;20236;-72
2024/04/13 12:04:17;;;;;;;4.00;1.80;;;22.70;99.90;;;;;;5443668;26;20332;-72
2024/04/13 12:06:47;;;;;;;2.53;1.30;;;22.60;99.90;;;;;;5443860;26;20233;-72
2024/04/13 12:09:13;;;;;;;2.10;1.40;;;22.80;99.90;;;;;;5443762;26;20295;-73
2024/04/13 12:11:41;;;;;;;3.58;1.67;;;22.90;99.90;;;;;;5443486;26;20345;-72
2024/04/13 12:14:10;;;;;;;1.75;1.40;;;22.80;99.90;;;;;;5443546;26;20586;-72
2024/04/13 12:16:39;;;;;;;3.72;1.70;;;22.70;99.90;;;;;;5443755;26;20228;-72
2024/04/13 12:19:05;;;;;;;1.70;1.60;;;22.50;99.90;;;;;;5445428;26;20232;-72
2024/04/13 12:21:33;;;;;;;2.33;1.67;;;22.40;99.90;;;;;;5447347;26;20240;-72
2024/04/13 12:23:59;;;;;;;5.78;2.03;;;22.40;99.90;;;;;;5447252;26;20224;-72
2024/04/13 12:26:29;;;;;;;2.65;1.50;;;22.50;99.90;;;;;;5447354;26;20228;-72
2024/04/13 12:28:55;;;;;;;4.43;1.70;;;22.40;99.90;;;;;;5447158;26;20679;-72
2024/04/13 12:31:26;;;;;;;2.03;1.63;;;22.60;99.90;;;;;;5447279;26;20228;-72
2024/04/13 12:33:52;;;;;;;2.05;1.50;;;22.50;99.90;;;;;;5447120;26;20267;-72
2024/04/13 12:36:21;;;;;;;3.38;1.30;;;22.50;99.90;;;;;;5446806;26;20240;-72
2024/04/13 12:38:47;;;;;;;3.22;1.35;;;22.60;99.90;;;;;;5446979;26;21085;-72
2024/04/13 12:41:15;;;;;;;1.77;1.60;;;22.70;99.90;;;;;;5446776;26;20243;-72
2024/04/13 12:43:42;;;;;;;5.85;1.98;;;22.90;99.90;;;;;;5446597;26;20232;-72
2024/04/13 12:46:11;;;;;;;1.58;1.42;;;22.80;99.90;;;;;;5446681;26;20270;-72
2024/04/13 12:48:40;;;;;;;1.50;1.25;;;22.80;99.90;;;;;;5446913;26;20271;-72
2024/04/13 12:51:09;;;;;;;3.88;1.42;;;22.80;99.90;;;;;;5446394;26;20232;-72